createdAt,value
2018-07-10T00:02:35.209Z,56.20
2018-07-10T00:07:29.447Z,56.30
2018-07-10T00:10:19.133Z,56.50
2018-07-10T00:12:47.241Z,57.40
2018-07-10T00:20:11.071Z,58.00
2018-07-10T00:22:39.270Z,58.00
2018-07-10T00:25:07.358Z,58.20
2018-07-10T00:27:35.450Z,58.30
2018-07-10T00:32:31.601Z,59.60
2018-07-10T00:34:59.689Z,60.00
2018-07-10T00:37:27.789Z,60.30
2018-07-10T00:39:55.885Z,60.60
2018-07-10T00:42:24.046Z,61.10
2018-07-10T00:44:52.137Z,60.80
2018-07-10T00:47:20.279Z,60.90
2018-07-10T00:49:48.338Z,61.90
2018-07-10T00:52:29.309Z,61.50
2018-07-10T00:54:57.603Z,61.10
2018-07-10T00:57:25.689Z,60.50
2018-07-10T00:59:54.345Z,60.40
2018-07-10T01:02:22.745Z,59.90
2018-07-10T01:04:50.850Z,60.00
2018-07-10T01:07:18.959Z,59.80
2018-07-10T01:09:47.079Z,60.00
2018-07-10T01:12:15.179Z,60.30
2018-07-10T01:14:43.286Z,60.30
2018-07-10T01:17:11.388Z,60.20
2018-07-10T01:19:39.501Z,59.80
2018-07-10T01:22:07.602Z,59.70
2018-07-10T01:24:35.709Z,59.50
2018-07-10T01:27:03.823Z,59.30
2018-07-10T01:29:37.310Z,59.00
2018-07-10T01:32:05.406Z,59.00
2018-07-10T01:34:33.527Z,59.10
2018-07-10T01:37:01.619Z,59.20
2018-07-10T01:39:29.736Z,59.30
2018-07-10T01:41:57.872Z,59.50
2018-07-10T01:44:25.999Z,59.60
2018-07-10T01:46:54.105Z,59.50
2018-07-10T01:49:22.229Z,59.40
2018-07-10T01:51:50.331Z,59.60
2018-07-10T01:54:18.433Z,59.70
2018-07-10T01:56:46.559Z,59.70
2018-07-10T01:59:16.935Z,59.80
2018-07-10T02:01:45.027Z,60.00
2018-07-10T02:04:13.132Z,61.60
2018-07-10T02:06:41.229Z,60.80
2018-07-10T02:09:09.341Z,60.90
2018-07-10T02:11:37.445Z,60.90
2018-07-10T02:14:05.695Z,60.90
2018-07-10T02:16:33.857Z,61.10
2018-07-10T02:19:01.963Z,61.70
2018-07-10T02:21:30.061Z,62.10
2018-07-10T02:23:58.170Z,62.00
2018-07-10T02:28:56.023Z,62.90
2018-07-10T02:31:24.123Z,63.30
2018-07-10T02:33:52.885Z,63.70
2018-07-10T02:36:21.938Z,64.80
2018-07-10T02:38:51.701Z,64.50
2018-07-10T02:41:21.451Z,64.90
2018-07-10T02:44:00.486Z,65.20
2018-07-10T02:46:29.745Z,65.40
2018-07-10T02:49:05.282Z,65.00
2018-07-10T02:51:35.058Z,65.60
2018-07-10T02:54:03.252Z,66.10
2018-07-10T02:56:31.338Z,66.00
2018-07-10T02:59:01.969Z,65.50
2018-07-10T03:01:30.719Z,65.70
2018-07-10T03:03:59.792Z,65.60
2018-07-10T03:06:27.906Z,66.60
2018-07-10T03:08:56.189Z,66.00
2018-07-10T03:11:24.603Z,66.10
2018-07-10T03:13:52.810Z,66.20
2018-07-10T03:16:21.018Z,66.20
2018-07-10T03:18:49.105Z,65.90
2018-07-10T03:21:17.254Z,65.80
2018-07-10T03:23:45.653Z,66.40
2018-07-10T03:26:13.758Z,66.20
2018-07-10T03:28:42.855Z,66.40
2018-07-10T03:31:11.153Z,66.20
2018-07-10T03:33:39.354Z,66.70
2018-07-10T03:36:07.450Z,66.90
2018-07-10T03:38:35.557Z,66.90
2018-07-10T03:41:03.750Z,67.10
2018-07-10T03:43:31.837Z,67.10
2018-07-10T03:46:00.957Z,67.20
2018-07-10T03:48:29.045Z,67.10
2018-07-10T03:50:57.225Z,67.00
2018-07-10T03:53:25.691Z,67.60
2018-07-10T03:55:53.828Z,68.30
2018-07-10T03:58:21.965Z,67.70
2018-07-10T04:05:46.961Z,68.20
2018-07-10T04:08:15.064Z,68.20
2018-07-10T04:10:43.161Z,68.40
2018-07-10T04:13:13.707Z,68.50
2018-07-10T04:15:44.838Z,68.30
2018-07-10T04:18:14.433Z,68.50
2018-07-10T04:20:48.278Z,68.80
2018-07-10T04:23:16.385Z,69.10
2018-07-10T04:25:49.734Z,69.30
2018-07-10T04:28:28.097Z,69.20
2018-07-10T04:31:05.517Z,69.30
2018-07-10T04:33:33.609Z,69.60
2018-07-10T04:36:01.737Z,69.60
2018-07-10T04:38:29.840Z,69.60
2018-07-10T04:41:03.029Z,68.70
2018-07-10T04:43:31.167Z,69.50
2018-07-10T04:45:59.841Z,69.00
2018-07-10T04:48:38.985Z,69.80
2018-07-10T04:51:12.830Z,69.90
2018-07-10T04:53:43.289Z,70.10
2018-07-10T04:56:12.250Z,70.90
2018-07-10T04:58:41.641Z,70.70
2018-07-10T05:01:09.738Z,71.00
2018-07-10T05:03:37.875Z,71.30
2018-07-10T05:06:07.350Z,71.50
2018-07-10T05:08:35.805Z,71.90
2018-07-10T05:11:04.137Z,72.20
2018-07-10T05:13:32.257Z,72.50
2018-07-10T05:16:03.693Z,72.10
2018-07-10T05:18:32.566Z,72.70
2018-07-10T05:21:03.722Z,72.80
2018-07-10T05:23:31.833Z,73.30
2018-07-10T05:25:59.937Z,73.60
2018-07-10T05:28:28.033Z,73.70
2018-07-10T05:30:59.969Z,73.80
2018-07-10T05:33:28.641Z,74.00
2018-07-10T05:35:56.822Z,74.40
2018-07-10T05:38:35.530Z,74.30
2018-07-10T05:41:04.074Z,75.20
2018-07-10T05:43:32.853Z,74.80
2018-07-10T05:46:01.070Z,74.80
2018-07-10T05:48:29.358Z,75.20
2018-07-10T05:50:57.757Z,75.10
2018-07-10T05:53:25.864Z,75.70
2018-07-10T05:55:54.145Z,75.20
2018-07-10T05:58:22.291Z,75.30
2018-07-10T06:00:50.346Z,75.20
2018-07-10T06:03:18.457Z,74.90
2018-07-10T06:05:46.558Z,75.30
2018-07-10T06:08:14.674Z,75.70
2018-07-10T06:10:42.824Z,75.90
2018-07-10T06:13:10.934Z,75.70
2018-07-10T06:15:39.066Z,75.00
2018-07-10T06:18:07.169Z,75.20
2018-07-10T06:20:35.253Z,75.80
2018-07-10T06:23:03.353Z,75.80
2018-07-10T06:25:34.276Z,75.30
2018-07-10T06:28:15.568Z,75.10
2018-07-10T06:30:43.693Z,75.70
2018-07-10T06:33:14.961Z,75.70
2018-07-10T06:35:47.862Z,76.30
2018-07-10T06:38:17.501Z,76.80
2018-07-10T06:40:48.267Z,76.20
2018-07-10T06:45:52.480Z,76.90
2018-07-10T06:48:21.842Z,76.10
2018-07-10T06:50:50.029Z,77.10
2018-07-10T06:53:21.372Z,77.00
2018-07-10T06:55:58.881Z,76.50
2018-07-10T06:58:32.289Z,77.10
2018-07-10T07:01:00.453Z,77.40
2018-07-10T07:03:28.639Z,77.80
2018-07-10T07:05:57.071Z,78.20
2018-07-10T07:08:25.292Z,78.00
2018-07-10T07:10:53.418Z,77.50
2018-07-10T07:15:50.547Z,78.10
2018-07-10T07:18:18.641Z,78.30
2018-07-10T07:20:46.801Z,79.20
2018-07-10T07:23:14.930Z,78.00
2018-07-10T07:25:43.025Z,78.10
2018-07-10T07:28:11.166Z,77.90
2018-07-10T07:30:39.286Z,78.00
2018-07-10T07:33:07.422Z,78.50
2018-07-10T07:35:35.539Z,78.70
2018-07-10T07:38:03.677Z,80.00
2018-07-10T07:40:31.777Z,80.00
2018-07-10T07:42:59.893Z,80.00
2018-07-10T07:45:27.997Z,80.30
2018-07-10T07:47:56.145Z,81.00
2018-07-10T07:50:28.112Z,80.90
2018-07-10T07:52:56.511Z,80.60
2018-07-10T07:55:24.971Z,80.40
2018-07-10T07:57:53.113Z,80.20
2018-07-10T08:00:21.302Z,80.00
2018-07-10T08:02:49.395Z,80.50
2018-07-10T08:05:17.861Z,80.40
2018-07-10T08:07:45.994Z,79.40
2018-07-10T08:10:14.507Z,79.60
2018-07-10T08:12:42.642Z,80.50
2018-07-10T08:15:11.580Z,79.00
2018-07-10T08:17:39.714Z,79.10
2018-07-10T08:20:07.849Z,79.40
2018-07-10T08:22:36.063Z,79.10
2018-07-10T08:25:04.706Z,78.10
2018-07-10T08:27:33.812Z,77.40
2018-07-10T08:30:01.957Z,78.00
2018-07-10T08:32:30.485Z,78.20
2018-07-10T08:34:58.661Z,78.00
2018-07-10T08:37:27.038Z,76.20
2018-07-10T08:39:55.166Z,76.50
2018-07-10T08:42:23.298Z,74.80
2018-07-10T08:44:51.434Z,73.70
2018-07-10T08:47:19.566Z,73.70
2018-07-10T08:49:48.025Z,72.40
2018-07-10T08:52:16.108Z,71.90
2018-07-10T08:54:44.245Z,73.40
2018-07-10T08:57:12.341Z,72.90
2018-07-10T08:59:40.489Z,72.40
2018-07-10T09:02:08.585Z,71.30
2018-07-10T09:04:36.722Z,71.60
2018-07-10T09:07:05.589Z,72.60
2018-07-10T09:09:33.712Z,72.00
2018-07-10T09:12:01.993Z,71.00
2018-07-10T09:14:30.123Z,71.40
2018-07-10T09:16:58.234Z,71.10
2018-07-10T09:19:29.780Z,71.30
2018-07-10T09:22:00.254Z,71.50
2018-07-10T09:24:28.396Z,71.20
2018-07-10T09:26:56.521Z,70.90
2018-07-10T09:29:24.698Z,71.50
2018-07-10T09:31:52.804Z,72.50
2018-07-10T09:34:20.932Z,73.50
2018-07-10T09:36:49.057Z,73.60
2018-07-10T09:39:17.175Z,73.30
2018-07-10T09:41:45.822Z,73.60
2018-07-10T09:44:13.957Z,74.00
2018-07-10T09:46:42.078Z,74.90
2018-07-10T09:49:10.201Z,72.90
2018-07-10T09:51:40.740Z,73.20
2018-07-10T09:54:08.860Z,72.70
2018-07-10T09:56:36.972Z,72.10
2018-07-10T09:59:05.072Z,72.70
2018-07-10T10:01:34.467Z,72.70
2018-07-10T10:04:03.622Z,72.90
2018-07-10T10:06:32.037Z,72.20
2018-07-10T10:09:00.147Z,72.30
2018-07-10T10:11:28.271Z,72.70
2018-07-10T10:13:56.377Z,73.90
2018-07-10T10:16:24.517Z,74.00
2018-07-10T10:18:54.912Z,76.00
2018-07-10T10:21:23.025Z,76.60
2018-07-10T10:23:51.130Z,77.30
2018-07-10T10:26:20.875Z,74.40
2018-07-10T10:28:49.170Z,73.00
2018-07-10T10:31:17.282Z,73.70
2018-07-10T10:33:45.470Z,74.00
2018-07-10T10:36:13.576Z,73.10
2018-07-10T10:38:43.483Z,75.30
2018-07-10T10:41:12.886Z,75.00
2018-07-10T10:43:41.057Z,75.70
2018-07-10T10:46:09.449Z,76.30
2018-07-10T10:48:37.634Z,77.20
2018-07-10T10:51:06.158Z,75.80
2018-07-10T10:53:34.256Z,76.10
2018-07-10T10:56:02.793Z,77.10
2018-07-10T10:58:30.906Z,79.70
2018-07-10T11:00:59.004Z,80.60
2018-07-10T11:03:27.117Z,80.00
2018-07-10T11:05:55.248Z,80.00
2018-07-10T11:08:23.386Z,81.00
2018-07-10T11:10:51.609Z,80.90
2018-07-10T11:13:19.745Z,82.20
2018-07-10T11:15:49.809Z,83.10
2018-07-10T11:18:39.448Z,83.90
2018-07-10T11:21:14.174Z,81.80
2018-07-10T11:23:51.292Z,80.20
2018-07-10T11:26:25.556Z,81.30
2018-07-10T11:28:54.409Z,79.20
2018-07-10T11:31:22.573Z,80.70
2018-07-10T11:33:50.702Z,81.70
2018-07-10T11:36:18.829Z,82.70
2018-07-10T11:38:46.946Z,83.40
2018-07-10T11:41:15.994Z,85.30
2018-07-10T11:43:44.135Z,83.20
2018-07-10T11:46:14.424Z,83.30
2018-07-10T11:48:42.666Z,79.40
2018-07-10T11:51:10.775Z,79.70
2018-07-10T11:53:39.316Z,76.90
2018-07-10T11:56:07.489Z,76.10
2018-07-10T11:58:35.628Z,78.90
2018-07-10T12:01:03.740Z,78.90
2018-07-10T12:03:37.277Z,78.00
2018-07-10T12:06:05.952Z,79.00
2018-07-10T12:08:34.057Z,77.70
2018-07-10T12:11:11.551Z,77.30
2018-07-10T12:13:40.329Z,76.10
2018-07-10T12:16:08.876Z,76.20
2018-07-10T12:18:37.021Z,75.80
2018-07-10T12:21:05.470Z,74.30
2018-07-10T12:23:33.602Z,72.60
2018-07-10T12:26:04.273Z,72.00
2018-07-10T12:28:32.865Z,73.10
2018-07-10T12:31:01.436Z,71.80
2018-07-10T12:33:29.589Z,70.90
2018-07-10T12:35:57.697Z,68.70
2018-07-10T12:38:25.826Z,69.00
2018-07-10T12:40:53.935Z,69.70
2018-07-10T12:43:22.062Z,71.90
2018-07-10T12:45:56.699Z,72.20
2018-07-10T12:48:24.909Z,70.40
2018-07-10T12:50:53.062Z,68.80
2018-07-10T12:53:21.184Z,67.30
2018-07-10T12:55:49.325Z,67.90
2018-07-10T12:58:18.304Z,67.10
2018-07-10T13:00:46.425Z,66.90
2018-07-10T13:03:16.036Z,66.70
2018-07-10T13:05:59.392Z,69.60
2018-07-10T13:08:27.535Z,70.80
2018-07-10T13:10:55.673Z,67.20
2018-07-10T13:13:23.818Z,67.60
2018-07-10T13:15:51.942Z,69.50
2018-07-10T13:18:23.524Z,67.40
2018-07-10T13:20:51.689Z,66.80
2018-07-10T13:23:20.010Z,68.40
2018-07-10T13:25:48.600Z,65.70
2018-07-10T13:28:16.883Z,66.60
2018-07-10T13:30:45.223Z,66.20
2018-07-10T13:33:13.655Z,64.40
2018-07-10T13:35:41.862Z,63.60
2018-07-10T13:38:10.062Z,64.50
2018-07-10T13:40:38.615Z,62.60
2018-07-10T13:43:06.802Z,62.50
2018-07-10T13:45:34.929Z,63.20
2018-07-10T13:48:03.082Z,61.40
2018-07-10T13:50:32.543Z,61.70
2018-07-10T13:53:01.733Z,62.90
2018-07-10T13:55:30.214Z,62.20
2018-07-10T13:58:04.533Z,58.90
2018-07-10T14:00:35.135Z,59.70
2018-07-10T14:03:03.271Z,60.30
2018-07-10T14:05:31.418Z,61.20
2018-07-10T14:07:59.562Z,59.90
2018-07-10T14:10:27.703Z,59.90
2018-07-10T14:12:55.832Z,60.60
2018-07-10T14:15:24.659Z,60.20
2018-07-10T14:17:53.426Z,61.20
2018-07-10T14:22:49.482Z,58.50
2018-07-10T14:25:17.854Z,59.10
2018-07-10T14:27:46.000Z,56.20
2018-07-10T14:30:14.143Z,56.60
2018-07-10T14:32:42.277Z,56.60
2018-07-10T14:35:10.399Z,57.30
2018-07-10T14:37:38.812Z,57.00
2018-07-10T14:40:06.951Z,56.40
2018-07-10T14:42:35.090Z,55.40
2018-07-10T14:45:04.768Z,56.50
2018-07-10T14:47:34.331Z,57.50
2018-07-10T14:50:03.054Z,57.30
2018-07-10T14:52:31.196Z,58.50
2018-07-10T14:54:59.315Z,57.00
2018-07-10T14:57:27.415Z,55.60
2018-07-10T14:59:55.533Z,54.30
2018-07-10T15:02:23.710Z,54.70
2018-07-10T15:04:51.809Z,54.80
2018-07-10T15:07:20.293Z,56.80
2018-07-10T15:09:48.418Z,55.40
2018-07-10T15:12:16.585Z,57.10
2018-07-10T15:14:44.909Z,55.80
2018-07-10T15:17:18.309Z,56.00
2018-07-10T15:19:46.477Z,56.20
2018-07-10T15:22:14.578Z,57.00
2018-07-10T15:24:42.874Z,57.20
2018-07-10T15:27:11.059Z,54.70
2018-07-10T15:29:39.239Z,54.20
2018-07-10T15:32:07.454Z,53.00
2018-07-10T15:34:35.575Z,54.10
2018-07-10T15:37:03.719Z,53.80
2018-07-10T15:42:07.078Z,54.30
2018-07-10T15:44:35.261Z,53.80
2018-07-10T15:47:03.446Z,52.50
2018-07-10T15:49:31.585Z,52.60
2018-07-10T15:52:00.274Z,52.30
2018-07-10T15:54:28.432Z,52.30
2018-07-10T15:56:56.549Z,53.10
2018-07-10T15:59:24.646Z,54.60
2018-07-10T16:01:52.745Z,54.20
2018-07-10T16:04:20.877Z,53.50
2018-07-10T16:06:48.984Z,53.40
2018-07-10T16:09:18.612Z,52.00
2018-07-10T16:11:48.954Z,51.30
2018-07-10T16:14:17.155Z,50.80
2018-07-10T16:16:46.365Z,51.20
2018-07-10T16:19:16.809Z,51.80
2018-07-10T16:22:22.539Z,52.10
2018-07-10T16:24:52.249Z,51.50
2018-07-10T16:27:27.665Z,50.40
2018-07-10T16:29:55.772Z,50.80
2018-07-10T16:32:24.778Z,51.20
2018-07-10T16:34:52.889Z,51.80
2018-07-10T16:37:20.992Z,51.60
2018-07-10T16:39:49.097Z,51.20
2018-07-10T16:42:22.629Z,51.50
2018-07-10T16:44:51.518Z,51.00
2018-07-10T16:49:51.281Z,50.50
2018-07-10T16:52:39.017Z,50.80
2018-07-10T16:55:07.133Z,51.30
2018-07-10T17:02:31.182Z,50.60
2018-07-10T17:04:59.339Z,51.30
2018-07-10T17:07:27.572Z,51.90
2018-07-10T17:09:55.672Z,52.20
2018-07-10T17:12:23.790Z,51.30
2018-07-10T17:14:54.978Z,51.60
2018-07-10T17:19:52.004Z,49.70
2018-07-10T17:22:20.582Z,50.00
2018-07-10T17:24:48.800Z,49.60
2018-07-10T17:27:18.765Z,50.20
2018-07-10T17:29:46.982Z,51.40
2018-07-10T17:32:15.090Z,51.00
2018-07-10T17:34:43.198Z,51.50
2018-07-10T17:37:11.335Z,51.80
2018-07-10T17:39:39.425Z,51.10
2018-07-10T17:42:07.617Z,51.30
2018-07-10T17:44:35.709Z,51.60
2018-07-10T17:47:03.822Z,50.50
2018-07-10T17:49:31.955Z,49.90
2018-07-10T17:52:00.057Z,49.40
2018-07-10T17:54:28.248Z,49.20
2018-07-10T17:56:56.274Z,49.60
2018-07-10T17:59:24.421Z,50.10
2018-07-10T18:01:52.613Z,50.60
2018-07-10T18:04:20.697Z,50.70
2018-07-10T18:06:48.809Z,51.80
2018-07-10T18:09:17.430Z,51.40
2018-07-10T18:11:45.542Z,51.30
2018-07-10T18:14:13.664Z,51.60
2018-07-10T18:16:41.900Z,50.30
2018-07-10T18:19:10.015Z,50.70
2018-07-10T18:21:38.120Z,50.50
2018-07-10T18:24:06.262Z,50.40
2018-07-10T18:26:34.365Z,50.10
2018-07-10T18:29:02.466Z,50.10
2018-07-10T18:31:30.570Z,51.10
2018-07-10T18:33:58.682Z,51.60
2018-07-10T18:36:26.800Z,51.60
2018-07-10T18:38:55.078Z,52.00
2018-07-10T18:41:23.181Z,52.20
2018-07-10T18:43:52.136Z,52.10
2018-07-10T18:46:21.434Z,52.30
2018-07-10T18:48:50.354Z,52.00
2018-07-10T18:51:19.867Z,51.90
2018-07-10T18:53:49.206Z,52.90
2018-07-10T18:56:17.355Z,53.50
2018-07-10T18:58:51.026Z,54.00
2018-07-10T19:02:24.425Z,54.30
2018-07-10T19:05:02.801Z,54.90
2018-07-10T19:07:31.419Z,54.80
2018-07-10T19:09:59.989Z,54.70
2018-07-10T19:12:28.458Z,54.70
2018-07-10T19:14:56.686Z,55.00
2018-07-10T19:17:29.915Z,54.80
2018-07-10T19:20:13.410Z,54.70
2018-07-10T19:23:01.157Z,55.10
2018-07-10T19:25:29.430Z,54.20
2018-07-10T19:27:58.833Z,54.50
2018-07-10T19:31:32.822Z,54.90
2018-07-10T19:34:01.048Z,54.80
2018-07-10T19:36:29.191Z,55.50
2018-07-10T19:38:57.473Z,55.80
2018-07-10T19:41:26.392Z,56.20
2018-07-10T19:43:55.570Z,56.20
2018-07-10T19:46:23.776Z,56.50
2018-07-10T19:48:54.186Z,56.80
2018-07-10T19:51:24.017Z,56.60
2018-07-10T19:53:53.692Z,57.20
2018-07-10T19:56:22.444Z,57.10
2018-07-10T19:58:50.548Z,57.20
2018-07-10T20:01:22.881Z,57.30
2018-07-10T20:04:03.741Z,57.60
2018-07-10T20:07:08.209Z,57.90
2018-07-10T20:09:52.056Z,58.20
2018-07-10T20:12:33.064Z,58.20
2018-07-10T20:15:26.185Z,58.10
2018-07-10T20:18:16.086Z,58.30
2018-07-10T20:20:51.979Z,58.50
2018-07-10T20:28:10.429Z,58.80
2018-07-10T20:30:53.726Z,59.10
2018-07-10T20:33:27.908Z,59.60
2018-07-10T20:35:58.789Z,59.90
2018-07-10T20:38:27.146Z,59.80
2018-07-10T20:40:55.242Z,60.00
2018-07-10T20:43:24.158Z,60.00
2018-07-10T20:45:54.093Z,60.20
2018-07-10T20:48:58.580Z,60.20
2018-07-10T20:51:31.853Z,60.10
2018-07-10T20:54:05.545Z,60.10
2018-07-10T20:58:47.202Z,60.20
2018-07-10T21:01:15.301Z,60.80
2018-07-10T21:03:50.873Z,61.80
2018-07-10T21:06:28.488Z,61.80
2018-07-10T21:09:14.358Z,62.10
2018-07-10T21:11:48.073Z,62.60
2018-07-10T21:14:52.685Z,62.70
2018-07-10T21:17:28.214Z,62.70
2018-07-10T21:20:03.258Z,62.30
2018-07-10T21:22:45.390Z,62.50
2018-07-10T21:25:19.379Z,62.60
2018-07-10T21:28:24.608Z,62.60
2018-07-10T21:31:01.677Z,62.60
2018-07-10T21:33:40.425Z,62.40
2018-07-10T21:36:16.479Z,62.20
2018-07-10T21:39:01.672Z,62.30
2018-07-10T21:41:45.317Z,62.80
2018-07-10T21:44:36.840Z,63.10
2018-07-10T21:47:16.272Z,63.10
2018-07-10T21:49:48.742Z,63.40
2018-07-10T21:52:16.840Z,63.30
2018-07-10T21:54:45.038Z,63.10
2018-07-10T21:57:14.793Z,63.00
2018-07-10T21:59:53.853Z,63.30
2018-07-10T22:02:23.096Z,63.70
2018-07-10T22:04:53.447Z,64.00
2018-07-10T22:07:21.754Z,64.30
2018-07-10T22:09:50.318Z,64.20
2018-07-10T22:12:19.621Z,64.30
2018-07-10T22:14:47.986Z,64.30
2018-07-10T22:17:22.337Z,64.50
2018-07-10T22:19:51.678Z,64.50
2018-07-10T22:22:20.929Z,64.60
2018-07-10T22:24:49.921Z,64.70
2018-07-10T22:27:18.586Z,64.60
2018-07-10T22:29:52.620Z,64.50
2018-07-10T22:32:26.485Z,64.60
2018-07-10T22:34:54.753Z,64.90
2018-07-10T22:37:22.853Z,64.80
2018-07-10T22:39:50.970Z,65.00
2018-07-10T22:42:19.069Z,64.80
2018-07-10T22:44:50.166Z,65.00
2018-07-10T22:47:23.441Z,65.30
2018-07-10T22:49:51.578Z,65.40
2018-07-10T22:52:19.740Z,65.50
2018-07-10T22:54:47.839Z,65.80
2018-07-10T22:57:15.956Z,66.20
2018-07-10T22:59:44.068Z,66.50
2018-07-10T23:02:12.169Z,66.40
2018-07-10T23:04:40.477Z,66.40
2018-07-10T23:07:08.942Z,66.40
2018-07-10T23:09:37.045Z,66.70
2018-07-10T23:12:05.146Z,66.90
2018-07-10T23:14:33.734Z,67.00
2018-07-10T23:17:01.855Z,67.20
2018-07-10T23:19:29.954Z,67.00
2018-07-10T23:21:58.053Z,67.10
2018-07-10T23:24:26.143Z,67.00
2018-07-10T23:26:54.263Z,66.90
2018-07-10T23:29:33.276Z,66.90
2018-07-10T23:32:01.510Z,66.60
2018-07-10T23:34:29.613Z,67.00
2018-07-10T23:36:59.583Z,67.20
2018-07-10T23:39:36.798Z,67.60
2018-07-10T23:42:09.010Z,67.70
2018-07-10T23:44:39.001Z,67.60
2018-07-10T23:47:29.125Z,67.60
2018-07-10T23:53:36.301Z,68.00
2018-07-10T23:56:04.430Z,68.40
2018-07-10T23:58:33.212Z,68.40
